Time;durP1;ratioP1;P1;durP2;ratioP2;P2;SDS_P1;SDS_P2;PMS_P1;PMS_P2;Temp;Humidity;BMP_temperature;BMP_pressure;BME280_temperature;BME280_humidity;BME280_pressure;Samples;Min_cycle;Max_cycle;Signal;HPM_P1;HPM_P2
2023/03/11 00:00:21;;;;;;;4.60;2.38;;;;;;;-148.88;100.00;76370.38;5019910;28;20026;-81
2023/03/11 00:02:48;;;;;;;5.15;2.60;;;;;;;-148.88;100.00;76378.50;5018879;28;20022;-79
2023/03/11 00:05:20;;;;;;;4.20;2.35;;;;;;;-148.88;100.00;76378.50;5034907;28;20021;-79
2023/03/11 00:07:45;;;;;;;7.50;3.00;;;;;;;-148.88;100.00;76384.59;5036013;28;20135;-78
2023/03/11 00:10:18;;;;;;;7.18;3.40;;;;;;;-148.88;100.00;76388.66;5039659;28;20052;-79
2023/03/11 00:12:44;;;;;;;4.57;2.67;;;;;;;-148.88;100.00;76406.94;5022266;28;20511;-80
2023/03/11 00:15:09;;;;;;;6.00;3.20;;;;;;;-148.88;100.00;76398.81;5040169;28;20021;-80
2023/03/11 00:17:35;;;;;;;4.53;2.60;;;;;;;-148.88;100.00;76396.78;5040421;28;20045;-80
2023/03/11 00:20:00;;;;;;;7.70;3.42;;;;;;;-148.88;100.00;76411.00;5040976;28;20104;-80
2023/03/11 00:22:25;;;;;;;8.05;2.78;;;;;;;-148.88;100.00;76419.16;5023553;28;20017;-81
2023/03/11 00:24:51;;;;;;;7.28;2.85;;;;;;;-148.88;100.00;76419.16;5023728;28;20026;-81
2023/03/11 00:27:16;;;;;;;8.70;3.10;;;;;;;-148.88;100.00;76419.16;5023479;28;20167;-80
2023/03/11 00:29:41;;;;;;;6.82;3.17;;;;;;;-148.88;100.00;76425.25;5041205;28;20034;-81
2023/03/11 00:32:06;;;;;;;8.02;3.50;;;;;;;-148.88;100.00;76425.25;5022912;28;20030;-79
2023/03/11 00:34:32;;;;;;;4.20;2.35;;;;;;;-148.88;100.00;76431.34;5040975;28;20030;-79
2023/03/11 00:36:57;;;;;;;9.02;3.53;;;;;;;-148.88;100.00;76437.44;5023442;28;20095;-79
2023/03/11 00:39:23;;;;;;;4.28;2.90;;;;;;;-148.88;100.00;76445.56;5021533;28;20029;-79
2023/03/11 00:41:49;;;;;;;5.43;2.63;;;;;;;-148.88;100.00;76449.63;5019743;28;20025;-80
2023/03/11 00:44:14;;;;;;;6.85;2.28;;;;;;;-148.88;100.00;76463.84;5038740;28;20025;-81
2023/03/11 00:46:40;;;;;;;6.15;2.75;;;;;;;-148.88;100.00;76463.84;5039553;28;20014;-78
2023/03/11 00:49:05;;;;;;;5.28;2.40;;;;;;;-148.88;100.00;76469.94;5039304;28;20100;-78
2023/03/11 00:51:30;;;;;;;7.13;3.20;;;;;;;-148.88;100.00;76474.00;5021697;28;20480;-81
2023/03/11 00:53:55;;;;;;;7.13;2.72;;;;;;;-148.88;100.00;76482.13;5039745;28;20030;-81
2023/03/11 00:56:21;;;;;;;8.00;3.25;;;;;;;-148.88;100.00;76484.16;5023529;28;20434;-80
2023/03/11 00:58:46;;;;;;;11.40;3.33;;;;;;;-148.88;100.00;76484.16;5041760;28;20033;-79
2023/03/11 01:01:14;;;;;;;8.00;3.70;;;;;;;-148.88;100.00;76494.31;5022968;28;20136;-80
2023/03/11 01:03:40;;;;;;;5.88;2.90;;;;;;;-148.88;100.00;76486.19;5023007;28;20112;-79
2023/03/11 01:06:06;;;;;;;5.40;2.60;;;;;;;-148.88;100.00;76496.34;5022567;28;20052;-79
2023/03/11 01:08:33;;;;;;;7.78;4.47;;;;;;;-148.88;100.00;76500.41;5048525;22;20586;-78
2023/03/11 01:10:59;;;;;;;5.93;2.80;;;;;;;-148.88;100.00;76502.44;5051036;22;20111;-80
2023/03/11 01:13:26;;;;;;;7.97;2.80;;;;;;;-148.88;100.00;76494.31;5056263;28;20037;-80
2023/03/11 01:15:52;;;;;;;6.78;3.38;;;;;;;-148.88;100.00;76498.38;5039421;28;20055;-80
2023/03/11 01:18:19;;;;;;;9.18;3.40;;;;;;;-148.88;100.00;76508.53;5055259;28;20033;-80
2023/03/11 01:20:44;;;;;;;10.18;3.70;;;;;;;-148.88;100.00;76508.53;5039713;28;20017;-80
2023/03/11 01:23:10;;;;;;;6.65;3.17;;;;;;;-148.88;100.00;76510.56;5038738;28;20464;-80
2023/03/11 01:25:35;;;;;;;5.47;2.63;;;;;;;-148.88;100.00;76508.53;5056305;28;20029;-80
2023/03/11 01:28:01;;;;;;;5.95;2.60;;;;;;;-148.88;100.00;76520.72;5055898;28;20047;-80
2023/03/11 01:30:27;;;;;;;8.00;2.53;;;;;;;-148.88;100.00;76516.66;5056741;28;20021;-80
2023/03/11 01:32:54;;;;;;;8.30;3.33;;;;;;;-148.88;100.00;76522.75;5057060;28;20029;-80
2023/03/11 01:35:22;;;;;;;8.35;3.92;;;;;;;-148.88;100.00;76512.59;5043840;28;20029;-79
2023/03/11 01:37:47;;;;;;;9.93;3.05;;;;;;;-148.88;100.00;76522.75;5019414;28;20047;-79
2023/03/11 01:40:18;;;;;;;7.70;3.50;;;;;;;-148.88;100.00;76520.72;5037519;28;20060;-78
2023/03/11 01:42:43;;;;;;;7.40;2.92;;;;;;;-148.88;100.00;76512.59;5037622;28;20503;-79
2023/03/11 01:45:31;;;;;;;8.55;3.40;;;;;;;-148.88;100.00;76526.81;5040996;28;20108;-80
2023/03/11 01:47:57;;;;;;;12.77;4.78;;;;;;;-148.88;100.00;76528.84;5055310;28;20027;-80
2023/03/11 01:50:24;;;;;;;9.43;3.78;;;;;;;-148.88;100.00;76528.84;5056529;28;20029;-80
2023/03/11 01:52:49;;;;;;;11.55;4.45;;;;;;;-148.88;100.00;76532.91;5055613;28;20021;-80
2023/03/11 01:55:16;;;;;;;10.30;4.65;;;;;;;-148.88;100.00;76541.03;5055926;28;20040;-80
2023/03/11 01:57:43;;;;;;;13.50;4.68;;;;;;;-148.88;100.00;76541.03;5037788;28;20014;-80
2023/03/11 02:00:14;;;;;;;10.38;4.30;;;;;;;-148.88;100.00;76541.03;5056133;28;20032;-80
2023/03/11 02:02:52;;;;;;;15.25;4.10;;;;;;;-148.88;100.00;76549.16;5038118;28;20063;-80
2023/03/11 02:05:20;;;;;;;12.13;5.20;;;;;;;-148.88;100.00;76545.09;5056063;28;20032;-80
2023/03/11 02:07:52;;;;;;;11.15;4.35;;;;;;;-148.88;100.00;76545.09;5038186;28;20534;-80
2023/03/11 02:10:18;;;;;;;9.35;4.57;;;;;;;-148.88;100.00;76555.25;5050381;28;20029;-80
2023/03/11 02:12:44;;;;;;;17.13;5.40;;;;;;;-148.88;100.00;76553.22;5037867;28;20531;-79
2023/03/11 02:15:10;;;;;;;11.68;4.70;;;;;;;-148.88;100.00;76555.25;5035888;28;20026;-79
2023/03/11 02:17:37;;;;;;;15.88;5.60;;;;;;;-148.88;100.00;76563.38;5035826;28;20028;-79
2023/03/11 02:20:12;;;;;;;10.82;5.00;;;;;;;-148.88;100.00;76567.44;5028284;28;20029;-80
2023/03/11 02:22:40;;;;;;;14.00;4.95;;;;;;;-148.88;100.00;76563.38;5055603;28;20056;-80
2023/03/11 02:25:30;;;;;;;19.80;5.90;;;;;;;-148.88;100.00;76569.47;5038031;28;20025;-80
2023/03/11 02:27:58;;;;;;;11.77;5.03;;;;;;;-148.88;100.00;76573.53;5038222;28;20033;-80
2023/03/11 02:30:26;;;;;;;11.27;4.80;;;;;;;-148.88;100.00;76569.47;5037156;28;20036;-80
2023/03/11 02:32:52;;;;;;;10.98;4.90;;;;;;;-148.88;100.00;76575.56;5055317;28;20029;-81
2023/03/11 02:35:17;;;;;;;13.13;5.35;;;;;;;-148.88;100.00;76573.53;5055756;28;20041;-80
2023/03/11 02:37:48;;;;;;;14.18;5.20;;;;;;;-148.88;100.00;76573.53;5055329;28;20037;-80
2023/03/11 02:40:35;;;;;;;15.68;5.70;;;;;;;-148.88;100.00;76577.59;5038173;28;20017;-80
2023/03/11 02:43:12;;;;;;;13.57;4.38;;;;;;;-148.88;100.00;76577.59;5037525;28;20029;-80
2023/03/11 02:45:38;;;;;;;12.15;4.75;;;;;;;-148.88;100.00;76581.66;5037796;28;20034;-80
2023/03/11 02:48:06;;;;;;;15.40;5.10;;;;;;;-148.88;100.00;76589.78;5041852;28;20021;-79
2023/03/11 02:50:33;;;;;;;12.20;4.40;;;;;;;-148.88;100.00;76593.84;5037700;28;20029;-79
2023/03/11 02:52:58;;;;;;;10.77;4.13;;;;;;;-148.88;100.00;76604.00;5035751;28;20112;-80
2023/03/11 02:55:24;;;;;;;14.73;4.85;;;;;;;-148.88;100.00;76587.75;5053064;28;20029;-80
2023/03/11 02:57:49;;;;;;;11.07;4.60;;;;;;;-148.88;100.00;76601.97;5052477;28;20039;-80
2023/03/11 03:00:16;;;;;;;8.27;4.15;;;;;;;-148.88;100.00;76606.06;5034349;28;20052;-79
2023/03/11 03:02:43;;;;;;;7.07;3.47;;;;;;;-148.88;100.00;76618.25;5032257;28;20017;-80
2023/03/11 03:05:09;;;;;;;9.75;3.90;;;;;;;-148.88;100.00;76618.25;5037511;28;20029;-80
2023/03/11 03:07:35;;;;;;;13.50;4.40;;;;;;;-148.88;100.00;76622.31;5054695;28;20021;-80
2023/03/11 03:10:00;;;;;;;8.30;3.85;;;;;;;-148.88;100.00;76628.41;5037424;28;20033;-80
2023/03/11 03:12:26;;;;;;;17.80;4.90;;;;;;;-148.88;100.00;76632.47;5054734;28;20025;-80
2023/03/11 03:14:51;;;;;;;10.70;3.58;;;;;;;-148.88;100.00;76634.50;5054802;28;20033;-81
2023/03/11 03:17:17;;;;;;;9.15;3.80;;;;;;;-148.88;100.00;76634.50;5054686;28;20021;-80
2023/03/11 03:19:42;;;;;;;8.70;3.88;;;;;;;-148.88;100.00;76616.22;5037092;28;20029;-80
2023/03/11 03:22:07;;;;;;;5.88;3.13;;;;;;;-148.88;100.00;76626.38;5054583;28;20093;-80
2023/03/11 03:24:33;;;;;;;9.63;4.35;;;;;;;-148.88;100.00;76642.63;5040288;28;20036;-79
2023/03/11 03:26:58;;;;;;;12.57;3.75;;;;;;;-148.88;100.00;76640.59;5036626;28;20032;-80
2023/03/11 03:29:23;;;;;;;11.52;3.83;;;;;;;-148.88;100.00;76654.81;5054408;28;20044;-80
2023/03/11 03:31:48;;;;;;;11.32;3.90;;;;;;;-148.88;100.00;76658.88;5037121;28;20032;-80
2023/03/11 03:34:14;;;;;;;9.18;3.58;;;;;;;-148.88;100.00;76658.88;5036712;28;20030;-81
2023/03/11 03:36:39;;;;;;;10.60;4.40;;;;;;;-148.88;100.00;76671.06;5037210;28;20463;-80
2023/03/11 03:39:05;;;;;;;11.45;5.15;;;;;;;-148.88;100.00;76687.31;5036926;28;20060;-80
2023/03/11 03:41:30;;;;;;;9.02;4.18;;;;;;;-148.88;100.00;76681.22;5036865;28;20089;-80
2023/03/11 03:43:56;;;;;;;9.40;3.58;;;;;;;-148.88;100.00;76691.38;5054610;28;20376;-80
2023/03/11 03:46:21;;;;;;;11.00;3.80;;;;;;;-148.88;100.00;76695.44;5037320;28;20456;-80
2023/03/11 03:48:46;;;;;;;7.35;3.42;;;;;;;-148.88;100.00;76691.38;5054368;28;20025;-80
2023/03/11 03:51:13;;;;;;;8.10;4.20;;;;;;;-148.88;100.00;76693.41;5036771;28;20035;-81
2023/03/11 03:53:39;;;;;;;9.00;3.35;;;;;;;-148.88;100.00;76697.47;5037147;28;20005;-80
2023/03/11 03:56:06;;;;;;;11.20;4.13;;;;;;;-148.88;100.00;76703.56;5036661;28;20472;-80
2023/03/11 03:58:31;;;;;;;10.77;3.88;;;;;;;-148.88;100.00;76711.69;5054134;28;20030;-80
2023/03/11 04:00:57;;;;;;;9.85;4.05;;;;;;;-148.88;100.00;76711.69;5040990;28;20037;-79
2023/03/11 04:03:24;;;;;;;12.55;3.83;;;;;;;-148.88;100.00;76711.69;5054127;28;20029;-80
2023/03/11 04:05:49;;;;;;;7.10;3.42;;;;;;;-148.88;100.00;76713.72;5054538;28;20048;-81
2023/03/11 04:08:15;;;;;;;8.25;3.78;;;;;;;-148.88;100.00;76707.63;5036768;28;20021;-81
2023/03/11 04:10:40;;;;;;;8.07;3.25;;;;;;;-148.88;100.00;76715.75;5036936;28;20032;-80
2023/03/11 04:13:05;;;;;;;7.38;3.35;;;;;;;-148.88;100.00;76723.88;5037236;28;20036;-80
2023/03/11 04:15:30;;;;;;;7.70;3.22;;;;;;;-148.88;100.00;76711.69;5054889;28;20085;-81
2023/03/11 04:17:56;;;;;;;12.77;3.83;;;;;;;-148.88;100.00;76709.66;5037969;28;20029;-80
2023/03/11 04:20:21;;;;;;;9.15;3.58;;;;;;;-148.88;100.00;76719.81;5037925;28;20037;-81
2023/03/11 04:22:46;;;;;;;10.98;3.42;;;;;;;-148.88;100.00;76723.88;5039559;28;20051;-79
2023/03/11 04:25:11;;;;;;;6.20;2.58;;;;;;;-148.88;100.00;76715.75;5017567;28;20033;-79
2023/03/11 04:27:44;;;;;;;6.22;3.20;;;;;;;-148.88;100.00;76715.75;5035991;28;20032;-79
2023/03/11 04:30:11;;;;;;;7.27;2.63;;;;;;;-148.88;100.00;76713.72;5036220;28;20044;-79
2023/03/11 04:32:36;;;;;;;7.10;3.25;;;;;;;-148.88;100.00;76727.94;5035855;28;20262;-79
2023/03/11 04:35:01;;;;;;;8.13;2.53;;;;;;;-148.88;100.00;76732.00;5020744;28;20044;-80
2023/03/11 04:37:28;;;;;;;7.13;2.38;;;;;;;-148.88;100.00;76736.06;5019908;28;20081;-79
2023/03/11 04:39:53;;;;;;;9.10;2.28;;;;;;;-148.88;100.00;76742.16;5033982;28;20029;-79
2023/03/11 04:42:18;;;;;;;8.00;2.10;;;;;;;-148.88;100.00;76752.31;5033883;28;20079;-79
2023/03/11 04:44:43;;;;;;;7.07;2.53;;;;;;;-148.88;100.00;76736.06;5034064;28;20018;-79
2023/03/11 04:47:09;;;;;;;4.90;1.88;;;;;;;-148.88;100.00;76744.19;5034114;28;20067;-79
2023/03/11 04:49:34;;;;;;;6.22;1.83;;;;;;;-148.88;100.00;76756.41;5016683;28;20033;-79
2023/03/11 04:51:59;;;;;;;11.23;2.50;;;;;;;-148.88;100.00;76750.28;5034911;28;20179;-79
2023/03/11 04:54:25;;;;;;;4.45;1.77;;;;;;;-148.88;100.00;76764.53;5019689;28;20168;-79
2023/03/11 04:56:50;;;;;;;4.65;1.75;;;;;;;-148.88;100.00;76762.50;5038216;28;20151;-78
2023/03/11 04:59:15;;;;;;;4.13;2.60;;;;;;;-148.88;100.00;76772.66;5038934;28;20372;-79
2023/03/11 05:01:40;;;;;;;3.13;1.58;;;;;;;-148.88;100.00;76784.84;5020438;28;20186;-79
2023/03/11 05:04:06;;;;;;;6.47;1.70;;;;;;;-148.88;100.00;76780.78;5020694;28;20048;-79
2023/03/11 05:06:31;;;;;;;3.78;1.55;;;;;;;-148.88;100.00;76780.78;5038471;28;20108;-79
2023/03/11 05:08:57;;;;;;;5.65;1.50;;;;;;;-148.88;100.00;76788.91;5024231;28;20025;-80
2023/03/11 05:11:23;;;;;;;9.02;1.85;;;;;;;-148.88;100.00;76788.91;5051411;28;20480;-80
2023/03/11 05:13:48;;;;;;;3.10;1.48;;;;;;;-148.88;100.00;76792.97;5039642;28;20026;-79
2023/03/11 05:16:13;;;;;;;2.88;1.30;;;;;;;-148.88;100.00;76805.16;5019475;28;20017;-79
2023/03/11 05:18:39;;;;;;;4.20;1.30;;;;;;;-148.88;100.00;76809.22;5019819;28;20124;-79
2023/03/11 05:21:04;;;;;;;4.03;1.05;;;;;;;-148.88;100.00;76809.22;5020260;28;20119;-79
2023/03/11 05:23:29;;;;;;;5.28;1.33;;;;;;;-148.88;100.00;76809.22;5038484;28;20049;-79
2023/03/11 05:25:55;;;;;;;4.40;1.33;;;;;;;-148.88;100.00;76809.22;5020425;28;20072;-79
2023/03/11 05:28:20;;;;;;;1.65;1.05;;;;;;;-148.88;100.00;76829.53;5019869;28;20476;-79
2023/03/11 05:30:45;;;;;;;4.07;1.38;;;;;;;-148.88;100.00;76833.59;5038336;28;20021;-79
2023/03/11 05:33:11;;;;;;;3.75;1.67;;;;;;;-148.88;100.00;76833.59;5038488;28;20045;-79
2023/03/11 05:35:36;;;;;;;6.20;1.63;;;;;;;-148.88;100.00;76827.50;5038295;28;20387;-79
2023/03/11 05:38:01;;;;;;;2.90;1.33;;;;;;;-148.88;100.00;76839.69;5020927;28;20053;-79
2023/03/11 05:40:26;;;;;;;4.25;1.40;;;;;;;-148.88;100.00;76845.78;5038070;28;20061;-78
2023/03/11 05:42:52;;;;;;;3.65;1.23;;;;;;;-148.88;100.00;76853.91;5039238;28;20107;-79
2023/03/11 05:45:17;;;;;;;6.70;1.60;;;;;;;-148.88;100.00;76862.03;5051483;28;20033;-80
2023/03/11 05:47:42;;;;;;;4.95;1.63;;;;;;;-148.88;100.00;76866.09;5047700;28;20480;-79
2023/03/11 05:50:10;;;;;;;6.07;1.58;;;;;;;-148.88;100.00;76876.25;5021701;28;20067;-79
2023/03/11 05:52:35;;;;;;;3.40;1.30;;;;;;;-148.88;100.00;76880.31;5035806;28;20021;-79
2023/03/11 05:55:01;;;;;;;4.07;1.48;;;;;;;-148.88;100.00;76870.16;5017805;28;20048;-79
2023/03/11 05:57:26;;;;;;;6.97;1.27;;;;;;;-148.88;100.00;76898.63;5035511;28;20024;-79
2023/03/11 05:59:52;;;;;;;4.22;1.15;;;;;;;-148.88;100.00;76900.66;5018082;28;20033;-79
2023/03/11 06:02:17;;;;;;;4.45;1.13;;;;;;;-148.88;100.00;76878.28;5018018;28;20120;-80
2023/03/11 06:04:43;;;;;;;5.57;1.48;;;;;;;-148.88;100.00;76896.59;5018044;28;20503;-80
2023/03/11 06:07:11;;;;;;;14.68;1.88;;;;;;;-148.88;100.00;76894.56;5035242;28;20017;-80
2023/03/11 06:09:36;;;;;;;7.55;1.33;;;;;;;-148.88;100.00;76902.69;5036003;28;20569;-80
2023/03/11 06:12:03;;;;;;;3.63;1.42;;;;;;;-148.88;100.00;76902.69;5018350;28;20037;-80
2023/03/11 06:14:30;;;;;;;2.88;1.10;;;;;;;-148.88;100.00;76886.41;5036568;28;20113;-80
2023/03/11 06:16:56;;;;;;;2.08;0.77;;;;;;;-148.88;100.00;76890.50;5019984;28;20021;-81
2023/03/11 06:19:21;;;;;;;3.35;1.38;;;;;;;-148.88;100.00;76896.59;5026617;28;20029;-81
2023/03/11 06:21:46;;;;;;;15.85;1.63;;;;;;;-148.88;100.00;76902.69;5028166;28;20026;-81
2023/03/11 06:24:12;;;;;;;5.30;1.20;;;;;;;-148.88;100.00;76898.63;5046192;28;20025;-81
2023/03/11 06:26:37;;;;;;;5.93;1.35;;;;;;;-148.88;100.00;76896.59;5037666;28;20025;-80
2023/03/11 06:29:03;;;;;;;4.43;2.00;;;;;;;-148.88;100.00;76908.78;5018139;28;20026;-80
2023/03/11 06:31:28;;;;;;;4.93;1.00;;;;;;;-148.88;100.00;76908.78;5035640;28;20032;-80
2023/03/11 06:33:58;;;;;;;6.03;1.13;;;;;;;-148.88;100.00;76910.81;5017803;28;20051;-80
2023/03/11 06:36:24;;;;;;;5.88;1.48;;;;;;;-148.88;100.00;76925.03;5035834;28;20411;-80
2023/03/11 06:38:53;;;;;;;4.55;1.20;;;;;;;-148.88;100.00;76920.97;5035505;28;20037;-80
2023/03/11 06:41:19;;;;;;;5.10;1.30;;;;;;;-148.88;100.00;76925.03;5035361;28;20488;-80
2023/03/11 06:43:44;;;;;;;3.33;1.20;;;;;;;-148.88;100.00;76931.13;5017680;28;20034;-80
2023/03/11 06:46:13;;;;;;;3.78;1.20;;;;;;;-148.88;100.00;76929.09;5035822;28;20108;-80
2023/03/11 06:48:39;;;;;;;7.72;1.40;;;;;;;-148.88;100.00;76939.25;5038949;28;20037;-80
2023/03/11 06:51:04;;;;;;;3.38;1.10;;;;;;;-148.88;100.00;76951.44;5037242;28;20092;-81
2023/03/11 06:53:30;;;;;;;5.25;1.40;;;;;;;-148.88;100.00;76951.44;5043244;28;20058;-81
2023/03/11 06:56:09;;;;;;;4.55;1.33;;;;;;;-148.88;100.00;76955.50;5024462;28;20140;-81
2023/03/11 06:58:36;;;;;;;8.73;1.40;;;;;;;-148.88;100.00;76947.38;5043590;28;20029;-80
2023/03/11 07:01:07;;;;;;;3.78;1.13;;;;;;;-148.88;100.00;76959.56;5025696;28;20022;-81
2023/03/11 07:03:33;;;;;;;8.15;1.00;;;;;;;-148.88;100.00;76949.41;5034553;28;20088;-80
2023/03/11 07:05:59;;;;;;;5.75;1.38;;;;;;;-148.88;100.00;76959.56;5016403;28;20033;-80
2023/03/11 07:08:25;;;;;;;7.05;1.27;;;;;;;-148.88;100.00;76963.63;5016511;28;20021;-80
2023/03/11 07:11:04;;;;;;;4.30;1.25;;;;;;;-148.88;100.00;76973.78;5016563;28;20105;-80
2023/03/11 07:13:30;;;;;;;5.32;1.33;;;;;;;-148.88;100.00;76992.06;5017507;28;20021;-80
2023/03/11 07:16:17;;;;;;;3.95;1.20;;;;;;;-148.88;100.00;76979.88;5035925;28;20484;-80
2023/03/11 07:18:44;;;;;;;2.83;1.05;;;;;;;-148.88;100.00;76996.13;5037655;28;20021;-80
2023/03/11 07:21:13;;;;;;;7.25;1.30;;;;;;;-148.88;100.00;76990.03;5017315;28;20029;-80
2023/03/11 07:23:39;;;;;;;5.75;1.20;;;;;;;-148.88;100.00;76965.66;5018817;28;20052;-81
2023/03/11 07:26:07;;;;;;;5.72;1.35;;;;;;;-148.88;100.00;76979.88;5038417;28;20594;-81
2023/03/11 07:28:32;;;;;;;2.72;1.05;;;;;;;-148.88;100.00;76979.88;5027673;28;20132;-81
2023/03/11 07:30:58;;;;;;;3.83;1.35;;;;;;;-148.88;100.00;76988.00;5027788;28;20032;-81
2023/03/11 07:33:23;;;;;;;4.38;1.15;;;;;;;-148.88;100.00;76973.78;5027019;28;20063;-81
2023/03/11 07:35:50;;;;;;;3.33;1.23;;;;;;;-148.88;100.00;76998.16;5046110;28;20041;-81
2023/03/11 07:38:16;;;;;;;2.95;1.38;;;;;;;-148.88;100.00;76979.88;5043485;28;20430;-80
2023/03/11 07:40:43;;;;;;;2.90;1.13;;;;;;;-148.88;100.00;77000.19;5038789;28;20029;-80
2023/03/11 07:43:08;;;;;;;6.45;1.13;;;;;;;-148.88;100.00;77000.19;5038283;28;20040;-82
2023/03/11 07:45:34;;;;;;;3.17;1.23;;;;;;;-148.88;100.00;77002.22;5039242;28;20026;-80
2023/03/11 07:47:59;;;;;;;2.50;0.98;;;;;;;-148.88;100.00;76979.88;5044751;28;20021;-79
2023/03/11 07:50:24;;;;;;;5.45;1.80;;;;;;;-148.88;100.00;77004.25;5027464;28;20079;-79
2023/03/11 07:52:50;;;;;;;6.32;1.60;;;;;;;-148.88;100.00;77000.19;5044586;28;20476;-78
2023/03/11 07:55:15;;;;;;;3.58;1.25;;;;;;;-148.88;100.00;77004.25;5041159;28;20032;-79
2023/03/11 07:57:41;;;;;;;4.15;1.80;;;;;;;-148.88;100.00;76996.13;5038310;28;20169;-79
2023/03/11 08:00:08;;;;;;;3.67;1.35;;;;;;;-148.88;100.00;76992.06;5041811;28;20105;-80
2023/03/11 08:02:34;;;;;;;4.47;1.42;;;;;;;-148.88;100.00;76996.13;5032986;28;20025;-80
2023/03/11 08:04:59;;;;;;;2.60;0.93;;;;;;;-148.88;100.00;76992.06;5033444;28;20089;-79
2023/03/11 08:07:24;;;;;;;3.30;1.25;;;;;;;-148.88;100.00;76971.75;5050614;28;20108;-80
2023/03/11 08:09:49;;;;;;;4.45;2.00;;;;;;;-148.88;100.00;76992.06;5032298;28;20025;-80
2023/03/11 08:12:15;;;;;;;5.40;1.92;;;;;;;-148.88;100.00;76975.81;5032348;28;20033;-80
2023/03/11 08:14:42;;;;;;;4.97;1.20;;;;;;;-148.88;100.00;76992.06;5025546;28;20045;-80
2023/03/11 08:17:08;;;;;;;8.10;1.67;;;;;;;-148.88;100.00;76985.97;5018105;28;20109;-80
2023/03/11 08:19:33;;;;;;;5.70;1.60;;;;;;;-148.88;100.00;76998.16;5035534;28;20053;-80
2023/03/11 08:22:03;;;;;;;6.63;2.40;;;;;;;-148.88;100.00;76994.09;5037392;28;20043;-80
2023/03/11 08:24:28;;;;;;;7.72;1.67;;;;;;;-148.88;100.00;76975.81;5037956;28;20442;-80
2023/03/11 08:26:55;;;;;;;9.95;1.63;;;;;;;-148.88;100.00;76992.06;5021969;28;20014;-80
2023/03/11 08:29:21;;;;;;;4.28;1.52;;;;;;;-148.88;100.00;76967.69;5019613;28;20021;-80
2023/03/11 08:31:47;;;;;;;4.22;1.70;;;;;;;-148.88;100.00;76963.63;5036802;28;20025;-80
2023/03/11 08:34:13;;;;;;;3.92;1.85;;;;;;;-148.88;100.00;76961.59;5038059;28;20021;-81
2023/03/11 08:36:38;;;;;;;4.07;1.70;;;;;;;-148.88;100.00;76957.53;5030431;28;20025;-81
2023/03/11 08:39:03;;;;;;;6.32;1.85;;;;;;;-148.88;100.00;76955.50;5044679;28;20056;-81
2023/03/11 08:41:29;;;;;;;5.20;1.60;;;;;;;-148.88;100.00;76959.56;5049309;28;20025;-81
2023/03/11 08:43:54;;;;;;;6.03;1.50;;;;;;;-148.88;100.00;76941.28;5031744;28;20541;-81
2023/03/11 08:46:24;;;;;;;4.93;1.67;;;;;;;-148.88;100.00;76931.13;5049490;28;20017;-82
2023/03/11 08:48:49;;;;;;;5.07;1.40;;;;;;;-148.88;100.00;76937.22;5050309;28;20022;-81
2023/03/11 08:51:15;;;;;;;3.53;1.35;;;;;;;-148.88;100.00;76949.41;5022575;28;20022;-81
2023/03/11 08:53:40;;;;;;;2.33;1.17;;;;;;;-148.88;100.00;76943.31;5017795;28;20021;-81
2023/03/11 08:56:06;;;;;;;7.38;1.70;;;;;;;-148.88;100.00;76943.31;5036002;28;20084;-81
2023/03/11 08:58:32;;;;;;;5.53;1.40;;;;;;;-148.88;100.00;76947.38;5037351;28;20484;-81
2023/03/11 09:00:58;;;;;;;4.72;1.83;;;;;;;-148.88;100.00;76927.06;5019630;28;20455;-81
2023/03/11 09:03:23;;;;;;;6.85;2.25;;;;;;;-148.88;100.00;76931.13;5018942;28;20025;-81
2023/03/11 09:05:55;;;;;;;4.20;1.75;;;;;;;-148.88;100.00;76925.03;5038031;28;20021;-81
2023/03/11 09:08:21;;;;;;;9.38;1.85;;;;;;;-148.88;100.00;76908.78;5039351;28;20476;-81
2023/03/11 09:10:46;;;;;;;7.28;1.75;;;;;;;-148.88;100.00;76882.34;5005877;28;1184562;-82
2023/03/11 09:13:11;;;;;;;3.40;1.40;;;;;;;-148.88;100.00;76882.34;5050225;28;20571;-82
2023/03/11 09:15:37;;;;;;;5.03;1.38;;;;;;;-148.88;100.00;76837.66;5050753;28;20025;-82
2023/03/11 09:18:03;;;;;;;4.43;1.35;;;;;;;-148.88;100.00;76835.63;5048881;28;20387;-82
2023/03/11 09:20:28;;;;;;;2.78;1.25;;;;;;;-148.88;100.00;76829.53;5030349;28;20088;-82
2023/03/11 09:22:53;;;;;;;3.97;1.70;;;;;;;-148.88;100.00;76809.22;5032217;28;20029;-81
2023/03/11 09:25:19;;;;;;;9.60;1.40;;;;;;;-148.88;100.00;76784.84;5033261;28;20036;-81
2023/03/11 09:27:44;;;;;;;4.50;1.40;;;;;;;-148.88;100.00;76792.97;5042252;28;20025;-82
2023/03/11 09:30:10;;;;;;;3.30;1.48;;;;;;;-148.88;100.00;76780.78;5026339;28;20025;-81
2023/03/11 09:32:35;;;;;;;5.68;1.38;;;;;;;-148.88;100.00;76768.59;5044402;28;20032;-81
2023/03/11 09:35:01;;;;;;;5.07;1.35;;;;;;;-148.88;100.00;76766.56;5043855;28;20021;-81
2023/03/11 09:37:29;;;;;;;6.55;1.52;;;;;;;-148.88;100.00;76776.72;5046364;28;20025;-81
2023/03/11 09:39:54;;;;;;;4.93;2.03;;;;;;;-148.88;100.00;76729.97;5026518;28;20112;-81
2023/03/11 09:42:35;;;;;;;3.90;1.17;;;;;;;-148.88;100.00;76742.16;5043962;28;20052;-81
2023/03/11 09:45:26;;;;;;;5.07;1.20;;;;;;;-148.88;99.12;76748.25;5050018;28;20032;-81
2023/03/11 09:48:19;;;;;;;3.05;1.52;;;;;;;-148.88;100.00;76729.97;5051651;28;20025;-81
2023/03/11 09:50:52;;;;;;;4.40;1.20;;;;;;;-148.88;99.88;76683.25;5051473;28;20068;-81
2023/03/11 09:53:25;;;;;;;3.80;1.05;;;;;;;-148.88;99.45;76687.31;5034729;28;20021;-80
2023/03/11 09:56:04;;;;;;;4.95;1.25;;;;;;;-148.88;97.32;76642.63;5053166;28;20030;-81
2023/03/11 09:58:38;;;;;;;2.83;1.23;;;;;;;-148.88;97.90;76587.75;5050668;28;20033;-81
2023/03/11 10:01:15;;;;;;;4.75;1.88;;;;;;;-148.88;96.51;76630.44;5051044;28;20045;-81
2023/03/11 10:03:42;;;;;;;3.50;1.33;;;;;;;-148.88;95.50;76597.91;5028839;28;20025;-81
2023/03/11 10:06:19;;;;;;;6.50;1.40;;;;;;;-148.88;93.83;76579.63;5048188;28;20021;-81
2023/03/11 10:09:07;;;;;;;3.40;1.63;;;;;;;-148.88;92.53;76589.78;5049544;28;20025;-80
2023/03/11 10:12:11;;;;;;;3.33;1.58;;;;;;;-148.88;94.16;76557.28;5049726;28;20026;-81
2023/03/11 10:14:49;;;;;;;4.00;1.55;;;;;;;-148.88;92.30;76599.94;5046021;28;20176;-81
2023/03/11 10:17:21;;;;;;;5.30;1.40;;;;;;;-148.88;90.68;76585.72;5047969;28;20032;-81
2023/03/11 10:19:54;;;;;;;4.00;1.48;;;;;;;-148.88;93.61;76549.16;5048370;28;20140;-81
2023/03/11 10:22:41;;;;;;;3.83;1.55;;;;;;;-148.88;90.59;76573.53;5049957;28;20084;-82
2023/03/11 10:25:13;;;;;;;2.65;1.10;;;;;;;-148.88;90.24;76524.78;5050644;28;20497;-81
2023/03/11 10:27:47;;;;;;;4.65;1.10;;;;;;;-148.88;92.82;76532.91;5051236;28;20108;-82
2023/03/11 10:30:30;;;;;;;5.57;1.40;;;;;;;-148.88;91.89;76573.53;5050986;28;20048;-82
2023/03/11 10:33:05;;;;;;;10.20;2.42;;;;;;;-148.88;90.41;76516.66;5053508;28;20025;-80
2023/03/11 10:35:43;;;;;;;1.70;0.75;;;;;;;-148.88;87.93;76508.53;5052848;28;20035;-79
2023/03/11 10:38:22;;;;;;;11.35;1.40;;;;;;;-148.88;90.71;76514.63;5034914;28;20036;-79
2023/03/11 10:40:51;;;;;;;4.70;1.58;;;;;;;-148.88;86.67;76500.41;5039717;28;20542;-80
2023/03/11 10:43:28;;;;;;;5.25;1.38;;;;;;;-148.88;86.89;76463.84;5038961;28;20085;-80
2023/03/11 10:45:54;;;;;;;6.35;1.67;;;;;;;-148.88;84.66;76557.28;5040931;28;20033;-80
2023/03/11 10:48:21;;;;;;;4.43;1.60;;;;;;;-148.88;88.85;76555.25;5039268;28;20034;-80
2023/03/11 10:51:21;;;;;;;3.42;1.20;;;;;;;-148.88;85.52;76524.78;5021651;28;20032;-80
2023/03/11 10:53:50;;;;;;;3.28;1.25;;;;;;;-148.88;85.03;76504.47;5026978;28;20026;-82
2023/03/11 10:56:34;;;;;;;5.50;1.30;;;;;;;-148.88;87.18;76488.22;5052842;28;20033;-81
2023/03/11 10:59:00;;;;;;;;;;;;;;;-148.88;83.74;76490.25;5053323;28;20025;-81
2023/03/11 11:01:27;;;;;;;8.30;1.30;;;;;;;-148.88;84.89;76492.28;5053482;28;19908;-81
2023/03/11 11:03:55;;;;;;;4.32;1.02;;;;;;;-148.88;82.79;76484.16;5052417;28;20018;-81
2023/03/11 11:06:30;;;;;;;2.05;1.08;;;;;;;-148.88;83.80;76441.50;5034599;28;20024;-81
2023/03/11 11:09:29;;;;;;;5.35;1.20;;;;;;;-148.88;85.47;76502.44;5034136;28;20063;-81
2023/03/11 11:12:05;;;;;;;2.88;0.90;;;;;;;-148.88;82.64;76445.56;5032367;28;20038;-81